Time;durP1;ratioP1;P1;durP2;ratioP2;P2;SDS_P1;SDS_P2;PMS_P1;PMS_P2;Temp;Humidity;BMP_temperature;BMP_pressure;BME280_temperature;BME280_humidity;BME280_pressure;Samples;Min_cycle;Max_cycle;Signal;HPM_P1;HPM_P2
2023/01/15 00:01:50;;;;;;;5.10;1.98;;;7.60;99.90;;;;;;21010398;28;20025;-78
2023/01/15 00:11:51;;;;;;;1.10;0.73;;;7.50;99.90;;;;;;21012164;28;20032;-80
2023/01/15 00:21:55;;;;;;;2.93;0.63;;;7.50;99.90;;;;;;21009198;28;20040;-80
2023/01/15 00:32:05;;;;;;;0.93;0.40;;;8.20;99.90;;;;;;21031712;28;20024;-80
2023/01/15 00:42:05;;;;;;;0.30;0.30;;;9.70;99.90;;;;;;21009337;28;20032;-78
2023/01/15 00:52:06;;;;;;;0.20;0.20;;;10.20;99.90;;;;;;21012006;28;20031;-79
2023/01/15 01:02:07;;;;;;;0.40;0.20;;;10.50;99.90;;;;;;21007410;28;20507;-80
2023/01/15 01:12:08;;;;;;;0.10;0.10;;;10.80;99.90;;;;;;21028352;28;20026;-80
2023/01/15 01:22:09;;;;;;;3.67;0.40;;;10.90;99.90;;;;;;21032350;28;20278;-78
2023/01/15 01:32:10;;;;;;;0.30;0.10;;;11.20;99.90;;;;;;21006464;28;20054;-78
2023/01/15 01:42:16;;;;;;;1.17;0.23;;;11.20;99.90;;;;;;20992039;28;20037;-79
2023/01/15 01:52:43;;;;;;;0.38;0.10;;;11.50;99.90;;;;;;20968828;28;20139;-79
2023/01/15 02:02:47;;;;;;;0.10;0.10;;;11.80;99.90;;;;;;21016970;28;20048;-79
2023/01/15 02:12:56;;;;;;;0.90;0.10;;;12.00;99.90;;;;;;20997377;28;20036;-79
2023/01/15 02:23:22;;;;;;;0.30;0.10;;;11.70;99.90;;;;;;21014715;28;20037;-79
2023/01/15 02:33:32;;;;;;;0.10;0.10;;;11.70;99.90;;;;;;21002868;28;20055;-79
2023/01/15 02:43:36;;;;;;;0.85;0.20;;;11.80;99.90;;;;;;20997024;28;20032;-79
2023/01/15 02:53:40;;;;;;;0.30;0.20;;;11.80;99.90;;;;;;20999459;28;20029;-79
2023/01/15 03:03:41;;;;;;;0.20;0.20;;;11.80;99.90;;;;;;20997501;28;20100;-79
2023/01/15 03:13:48;;;;;;;1.23;0.40;;;11.90;99.90;;;;;;20996339;28;20028;-77
2023/01/15 03:23:52;;;;;;;0.32;0.20;;;11.90;99.90;;;;;;21025454;28;20090;-80
2023/01/15 03:33:53;;;;;;;0.70;0.30;;;11.90;99.90;;;;;;20992542;28;20028;-79
2023/01/15 03:44:05;;;;;;;0.30;0.13;;;11.80;99.90;;;;;;20990662;28;20036;-80
2023/01/15 03:54:17;;;;;;;0.17;0.17;;;11.30;99.90;;;;;;20990339;28;20028;-81
2023/01/15 04:04:24;;;;;;;1.00;0.38;;;11.00;99.90;;;;;;20987597;28;20033;-80
2023/01/15 04:14:29;;;;;;;0.20;0.20;;;10.70;99.90;;;;;;20983487;28;20097;-80
2023/01/15 04:24:32;;;;;;;5.32;0.30;;;10.70;99.90;;;;;;20925608;28;20063;-81
2023/01/15 04:34:34;;;;;;;0.10;0.10;;;10.90;99.90;;;;;;20977045;28;20025;-80
2023/01/15 04:44:36;;;;;;;0.32;0.20;;;10.80;99.90;;;;;;21003834;28;20086;-80
2023/01/15 04:54:38;;;;;;;0.20;0.20;;;11.00;99.90;;;;;;21004568;28;20028;-81
2023/01/15 05:04:38;;;;;;;;;;;11.20;99.90;;;;;;21009574;28;20040;-79
2023/01/15 05:14:39;;;;;;;0.23;0.20;;;11.20;99.90;;;;;;21005426;28;19923;-76
2023/01/15 05:24:40;;;;;;;0.10;0.10;;;11.30;99.90;;;;;;21002917;28;20040;-81
2023/01/15 05:34:41;;;;;;;0.23;0.20;;;11.40;99.90;;;;;;20994119;28;20031;-79
2023/01/15 05:44:41;;;;;;;0.23;0.17;;;10.90;99.90;;;;;;21019474;28;20052;-80
2023/01/15 05:54:42;;;;;;;0.20;0.20;;;10.50;99.90;;;;;;21008226;28;20035;-81
2023/01/15 06:04:43;;;;;;;0.30;0.20;;;10.70;99.90;;;;;;21025697;28;20032;-80
2023/01/15 06:14:44;;;;;;;0.20;0.20;;;10.90;99.90;;;;;;21009448;28;20403;-79
2023/01/15 06:24:45;;;;;;;0.20;0.20;;;10.90;99.90;;;;;;21001632;28;20100;-78
2023/01/15 06:34:45;;;;;;;0.40;0.20;;;11.20;99.90;;;;;;20978676;28;20047;-80
2023/01/15 06:55:06;;;;;;;0.10;0.10;;;11.30;99.90;;;;;;21025794;28;20633;-80
2023/01/15 07:05:07;;;;;;;;;;;11.50;99.90;;;;;;21023325;28;20044;-78
2023/01/15 07:15:09;;;;;;;0.38;0.30;;;12.00;99.90;;;;;;21018226;28;20299;-80
2023/01/15 07:25:12;;;;;;;;;;;12.20;99.90;;;;;;21018571;28;20024;-77
2023/01/15 07:35:13;;;;;;;0.52;0.45;;;12.30;99.90;;;;;;21015144;28;19919;-78
2023/01/15 07:55:35;;;;;;;0.13;0.13;;;9.20;99.90;;;;;;21020662;28;20035;-80
2023/01/15 08:05:38;;;;;;;0.10;0.10;;;8.40;99.90;;;;;;20990412;28;20036;-78
2023/01/15 08:15:41;;;;;;;3.28;0.10;;;8.00;99.90;;;;;;21008342;28;20025;-80
2023/01/15 08:25:42;;;;;;;0.20;0.20;;;7.50;99.90;;;;;;21010215;28;20092;-81
2023/01/15 08:35:43;;;;;;;0.63;0.52;;;7.10;99.90;;;;;;21014462;28;20103;-81
2023/01/15 08:45:43;;;;;;;;;;;6.70;99.90;;;;;;21013652;28;20029;-80
2023/01/15 08:55:45;;;;;;;0.20;0.20;;;6.50;99.90;;;;;;21009517;28;19908;-79
2023/01/15 09:05:46;;;;;;;0.75;0.30;;;6.00;99.90;;;;;;21006864;28;20075;-81
2023/01/15 09:15:50;;;;;;;0.40;0.40;;;5.50;99.90;;;;;;21009856;28;20025;-79
2023/01/15 09:25:55;;;;;;;0.28;0.28;;;5.10;99.90;;;;;;21007445;28;20119;-80
2023/01/15 09:35:56;;;;;;;0.65;0.40;;;5.00;99.90;;;;;;21011258;28;21399;-80
2023/01/15 09:46:17;;;;;;;0.63;0.40;;;4.80;99.90;;;;;;21002186;28;20120;-80
2023/01/15 09:56:27;;;;;;;2.70;0.50;;;4.70;99.90;;;;;;20954788;28;20316;-81
2023/01/15 10:06:42;;;;;;;0.30;0.30;;;4.80;99.90;;;;;;21015114;28;20035;-80
2023/01/15 10:16:43;;;;;;;0.30;0.30;;;4.70;99.90;;;;;;21028827;28;20040;-82
2023/01/15 10:26:54;;;;;;;0.30;0.30;;;4.50;99.90;;;;;;21007427;28;20028;-79
2023/01/15 10:37:01;;;;;;;0.82;0.28;;;4.40;99.90;;;;;;21003377;28;20035;-80
2023/01/15 10:47:08;;;;;;;0.95;0.40;;;4.30;99.90;;;;;;21000754;28;20021;-80
2023/01/15 10:57:31;;;;;;;0.30;0.30;;;4.30;99.90;;;;;;20993905;28;20021;-78
2023/01/15 11:07:43;;;;;;;0.30;0.30;;;4.30;99.90;;;;;;21016448;28;20028;-79
2023/01/15 11:28:06;;;;;;;0.45;0.45;;;4.00;99.90;;;;;;21021683;28;20024;-80
2023/01/15 11:38:13;;;;;;;0.30;0.30;;;4.00;99.90;;;;;;21036080;28;20024;-76
2023/01/15 11:58:54;;;;;;;3.47;0.40;;;3.90;99.90;;;;;;21018532;28;20036;-79
2023/01/15 12:09:05;;;;;;;0.40;0.40;;;3.80;99.90;;;;;;21029528;28;20491;-81
2023/01/15 12:19:17;;;;;;;;;;;3.70;99.90;;;;;;21039620;28;20032;-81
2023/01/15 12:29:30;;;;;;;0.40;0.40;;;3.70;99.90;;;;;;21036000;28;19912;-81
2023/01/15 12:40:06;;;;;;;1.02;0.50;;;3.80;99.90;;;;;;21028133;28;20031;-80
2023/01/15 12:50:13;;;;;;;0.68;0.40;;;3.80;99.90;;;;;;20987785;28;20045;-81
2023/01/15 13:00:24;;;;;;;0.70;0.50;;;3.90;99.90;;;;;;21027810;28;20056;-80
2023/01/15 13:10:27;;;;;;;0.67;0.50;;;3.80;99.90;;;;;;21032827;28;20032;-80
2023/01/15 13:20:45;;;;;;;1.13;0.68;;;3.80;99.90;;;;;;21008692;28;20407;-79
2023/01/15 13:30:58;;;;;;;4.32;0.88;;;3.80;99.90;;;;;;21020739;28;20399;-78
2023/01/15 13:40:59;;;;;;;2.53;0.60;;;3.80;99.90;;;;;;20980647;28;20146;-78
2023/01/15 13:51:06;;;;;;;0.90;0.63;;;3.90;99.90;;;;;;20997740;28;20099;-77
2023/01/15 14:01:16;;;;;;;0.60;0.60;;;3.90;99.90;;;;;;21029458;28;20040;-79
2023/01/15 14:11:45;;;;;;;3.55;0.88;;;3.90;99.90;;;;;;21035730;28;20020;-80
2023/01/15 14:22:19;;;;;;;1.48;1.00;;;4.00;99.90;;;;;;21005451;28;20040;-80
2023/01/15 14:32:30;;;;;;;1.77;0.73;;;4.40;99.90;;;;;;21019399;28;20025;-79
2023/01/15 14:53:10;;;;;;;1.85;0.75;;;6.40;99.90;;;;;;21033333;28;20279;-79
2023/01/15 15:03:21;;;;;;;5.57;1.00;;;6.50;99.90;;;;;;21029695;28;20047;-78
2023/01/15 15:13:30;;;;;;;2.30;0.67;;;6.50;99.90;;;;;;21037773;28;20067;-80
2023/01/15 15:24:04;;;;;;;1.38;0.40;;;6.30;99.90;;;;;;21029563;28;20448;-78
2023/01/15 15:34:16;;;;;;;3.63;0.73;;;6.00;99.90;;;;;;21015723;28;20040;-79
2023/01/15 15:55:13;;;;;;;2.08;0.50;;;5.20;99.90;;;;;;21016467;28;20626;-78
2023/01/15 16:05:26;;;;;;;2.40;1.52;;;4.80;99.90;;;;;;21017146;28;20104;-80
2023/01/15 16:15:33;;;;;;;3.10;0.70;;;4.50;99.90;;;;;;21013468;28;20039;-80
2023/01/15 16:25:38;;;;;;;3.08;0.80;;;4.40;99.90;;;;;;20943814;28;20555;-79
2023/01/15 16:35:40;;;;;;;7.72;1.05;;;4.20;99.90;;;;;;21023700;28;20044;-80
2023/01/15 16:45:59;;;;;;;1.75;0.70;;;4.10;99.90;;;;;;21019280;28;20036;-79
2023/01/15 16:56:00;;;;;;;3.75;0.95;;;4.00;99.90;;;;;;21019639;28;20036;-80
2023/01/15 17:06:10;;;;;;;1.02;0.70;;;4.00;99.90;;;;;;21017758;28;20032;-79
2023/01/15 17:16:11;;;;;;;2.00;1.02;;;3.90;99.90;;;;;;21007855;28;20029;-77
2023/01/15 17:26:19;;;;;;;6.47;1.20;;;3.80;99.90;;;;;;21017673;28;20058;-80
2023/01/15 17:36:20;;;;;;;9.15;1.85;;;3.70;99.90;;;;;;21014907;28;20036;-80
2023/01/15 17:46:24;;;;;;;8.40;1.92;;;3.50;99.90;;;;;;21017659;28;20024;-79
2023/01/15 18:06:48;;;;;;;3.42;1.67;;;3.20;99.90;;;;;;21015975;28;20035;-79
2023/01/15 18:16:49;;;;;;;3.72;1.85;;;3.10;99.90;;;;;;21016492;28;20077;-80
2023/01/15 18:26:54;;;;;;;4.13;1.73;;;3.00;99.90;;;;;;21013175;28;20037;-80
2023/01/15 18:36:58;;;;;;;6.50;1.75;;;2.90;99.90;;;;;;21033404;28;20058;-78
2023/01/15 18:47:01;;;;;;;5.63;1.52;;;2.60;99.90;;;;;;21064440;28;20031;-80
2023/01/15 18:57:02;;;;;;;7.00;1.75;;;2.20;99.90;;;;;;21050932;28;20031;-80
2023/01/15 19:07:03;;;;;;;3.03;1.58;;;2.00;99.90;;;;;;21033233;28;20024;-80
2023/01/15 19:27:23;;;;;;;3.35;1.38;;;1.70;99.90;;;;;;21013209;28;20470;-79
2023/01/15 19:37:25;;;;;;;2.50;1.20;;;1.30;99.90;;;;;;21015982;28;20020;-79
2023/01/15 19:57:58;;;;;;;10.90;3.45;;;0.60;99.90;;;;;;21011539;28;20057;-79
2023/01/15 20:08:02;;;;;;;10.90;5.07;;;0.70;99.90;;;;;;21011096;28;20021;-78
2023/01/15 20:18:03;;;;;;;6.35;3.22;;;0.50;99.90;;;;;;21017313;28;20029;-78
2023/01/15 20:28:04;;;;;;;14.95;3.05;;;0.50;99.90;;;;;;21015404;28;20017;-78
2023/01/15 20:38:06;;;;;;;3.05;1.58;;;0.50;99.90;;;;;;21011521;28;20056;-79
2023/01/15 20:58:13;;;;;;;4.72;1.92;;;1.00;99.90;;;;;;21016261;28;20280;-79
2023/01/15 21:08:14;;;;;;;4.65;1.42;;;1.10;99.90;;;;;;21015032;28;20035;-80
2023/01/15 21:18:15;;;;;;;1.77;1.08;;;1.20;99.90;;;;;;21012185;28;20052;-78
2023/01/15 21:28:16;;;;;;;4.95;1.20;;;1.60;99.90;;;;;;21011947;28;20399;-79
2023/01/15 21:38:19;;;;;;;8.85;2.53;;;1.20;99.90;;;;;;21018834;28;20032;-77
2023/01/15 21:48:20;;;;;;;1.77;1.25;;;1.20;99.90;;;;;;21015897;28;20032;-78
2023/01/15 21:58:21;;;;;;;5.65;1.20;;;0.90;99.90;;;;;;21020688;28;20020;-77
2023/01/15 22:08:21;;;;;;;11.48;2.53;;;0.90;99.90;;;;;;21028379;28;20020;-78
2023/01/15 22:18:32;;;;;;;3.55;1.15;;;0.90;99.90;;;;;;21105488;28;20448;-80
2023/01/15 22:28:33;;;;;;;3.17;1.83;;;0.60;99.90;;;;;;21046864;28;20096;-80
2023/01/15 22:38:34;;;;;;;2.30;1.30;;;0.60;99.90;;;;;;21038156;28;20036;-79
2023/01/15 22:48:35;;;;;;;3.28;1.63;;;0.80;99.90;;;;;;21071867;28;20028;-79
2023/01/15 22:58:41;;;;;;;1.63;1.20;;;0.90;99.90;;;;;;21066199;28;20642;-79
2023/01/15 23:08:41;;;;;;;1.63;1.20;;;0.50;99.90;;;;;;21028136;28;20178;-79
2023/01/15 23:18:42;;;;;;;3.85;1.98;;;0.40;99.90;;;;;;21043542;28;20020;-79
2023/01/15 23:28:43;;;;;;;9.15;1.70;;;0.30;99.90;;;;;;21075833;28;20032;-78
2023/01/15 23:38:47;;;;;;;7.53;2.25;;;0.40;99.90;;;;;;21056623;28;20556;-78
2023/01/15 23:48:48;;;;;;;3.30;1.33;;;0.60;99.90;;;;;;21026609;28;20063;-80
2023/01/15 23:58:49;;;;;;;3.97;1.00;;;0.70;99.90;;;;;;21026602;28;20028;-79
